createdAt,value
2018-08-19T00:02:14.974Z,46.80
2018-08-19T00:04:48.739Z,46.80
2018-08-19T00:07:17.530Z,47.00
2018-08-19T00:09:46.337Z,46.80
2018-08-19T00:12:15.198Z,46.90
2018-08-19T00:14:44.032Z,47.00
2018-08-19T00:17:12.848Z,47.00
2018-08-19T00:19:41.722Z,47.10
2018-08-19T00:22:13.003Z,47.20
2018-08-19T00:24:42.755Z,47.10
2018-08-19T00:27:11.563Z,47.20
2018-08-19T00:29:40.393Z,47.00
2018-08-19T00:32:09.234Z,47.40
2018-08-19T00:34:38.030Z,47.40
2018-08-19T00:37:07.170Z,47.50
2018-08-19T00:39:36.043Z,47.60
2018-08-19T00:42:05.294Z,47.60
2018-08-19T00:44:34.717Z,47.70
2018-08-19T00:47:03.959Z,48.00
2018-08-19T00:49:32.801Z,47.80
2018-08-19T00:52:03.134Z,47.90
2018-08-19T00:54:32.730Z,48.00
2018-08-19T00:57:01.918Z,48.00
2018-08-19T00:59:31.940Z,48.10
2018-08-19T01:02:00.767Z,48.20
2018-08-19T01:04:30.483Z,48.30
2018-08-19T01:07:00.395Z,48.40
2018-08-19T01:09:31.467Z,48.50
2018-08-19T01:12:00.351Z,48.50
2018-08-19T01:14:29.262Z,48.60
2018-08-19T01:16:58.755Z,48.80
2018-08-19T01:19:27.599Z,48.80
2018-08-19T01:21:56.467Z,48.90
2018-08-19T01:24:25.344Z,49.00
2018-08-19T01:26:54.209Z,49.00
2018-08-19T01:29:34.934Z,49.20
2018-08-19T01:32:09.028Z,49.20
2018-08-19T01:34:38.264Z,49.20
2018-08-19T01:37:07.125Z,49.40
2018-08-19T01:39:38.047Z,49.40
2018-08-19T01:42:07.498Z,49.50
2018-08-19T01:44:36.739Z,49.60
2018-08-19T01:47:05.614Z,49.80
2018-08-19T01:49:34.747Z,49.70
2018-08-19T01:52:03.557Z,49.90
2018-08-19T01:54:32.404Z,49.90
2018-08-19T01:57:02.254Z,49.90
2018-08-19T01:59:33.150Z,49.90
2018-08-19T02:02:03.904Z,50.10
2018-08-19T02:04:34.241Z,50.10
2018-08-19T02:07:03.142Z,50.00
2018-08-19T02:09:32.311Z,50.10
2018-08-19T02:12:04.232Z,50.20
2018-08-19T02:14:33.109Z,50.20
2018-08-19T02:17:02.549Z,50.20
2018-08-19T02:19:31.355Z,50.00
2018-08-19T02:22:00.162Z,49.80
2018-08-19T02:24:35.746Z,49.60
2018-08-19T02:27:04.869Z,49.10
2018-08-19T02:29:35.625Z,48.90
2018-08-19T02:32:09.541Z,48.60
2018-08-19T02:34:41.685Z,48.40
2018-08-19T02:37:12.552Z,48.90
2018-08-19T02:39:43.782Z,48.30
2018-08-19T02:42:27.013Z,48.10
2018-08-19T02:45:03.410Z,47.90
2018-08-19T02:47:33.214Z,47.70
2018-08-19T02:50:02.095Z,47.70
2018-08-19T02:52:32.913Z,47.60
2018-08-19T02:55:04.690Z,47.70
2018-08-19T02:57:34.178Z,47.70
2018-08-19T03:00:04.804Z,47.70
2018-08-19T03:02:36.085Z,47.20
2018-08-19T03:05:10.702Z,47.90
2018-08-19T03:07:39.527Z,47.80
2018-08-19T03:10:11.261Z,48.00
2018-08-19T03:12:40.762Z,48.00
2018-08-19T03:15:11.242Z,48.00
2018-08-19T03:17:40.655Z,47.80
2018-08-19T03:20:13.737Z,48.00
2018-08-19T03:22:42.704Z,48.60
2018-08-19T03:25:11.845Z,48.10
2018-08-19T03:27:40.685Z,48.00
2018-08-19T03:30:10.953Z,48.10
2018-08-19T03:32:49.882Z,48.10
2018-08-19T03:35:19.898Z,48.10
2018-08-19T03:37:53.419Z,47.80
2018-08-19T03:40:24.956Z,47.80
2018-08-19T03:42:54.128Z,47.90
2018-08-19T03:45:23.281Z,48.00
2018-08-19T03:47:53.050Z,48.00
2018-08-19T03:50:23.096Z,48.00
2018-08-19T03:52:52.574Z,48.00
2018-08-19T03:55:29.495Z,48.60
2018-08-19T03:58:07.657Z,48.10
2018-08-19T04:00:39.675Z,48.10
2018-08-19T04:03:16.295Z,48.10
2018-08-19T04:05:49.644Z,47.90
2018-08-19T04:08:18.458Z,47.90
2018-08-19T04:10:47.985Z,47.80
2018-08-19T04:13:27.333Z,47.90
2018-08-19T04:16:01.246Z,47.90
2018-08-19T04:18:34.370Z,47.90
2018-08-19T04:21:04.367Z,48.00
2018-08-19T04:23:33.645Z,47.70
2018-08-19T04:26:02.867Z,47.70
2018-08-19T04:28:35.227Z,47.80
2018-08-19T04:31:10.058Z,48.40
2018-08-19T04:33:41.622Z,47.80
2018-08-19T04:36:12.829Z,47.70
2018-08-19T04:38:41.844Z,47.80
2018-08-19T04:41:10.933Z,47.80
2018-08-19T04:43:39.860Z,47.70
2018-08-19T04:46:09.371Z,47.70
2018-08-19T04:48:38.230Z,47.60
2018-08-19T04:51:07.653Z,47.50
2018-08-19T04:53:36.488Z,47.50
2018-08-19T04:56:05.319Z,47.30
2018-08-19T04:58:34.162Z,47.40
2018-08-19T05:01:02.973Z,47.40
2018-08-19T05:03:31.833Z,47.20
2018-08-19T05:06:01.628Z,47.10
2018-08-19T05:08:31.056Z,47.10
2018-08-19T05:10:59.805Z,46.80
2018-08-19T05:13:30.196Z,46.70
2018-08-19T05:15:59.196Z,46.60
2018-08-19T05:18:28.009Z,46.40
2018-08-19T05:21:04.412Z,46.10
2018-08-19T05:23:33.217Z,46.10
2018-08-19T05:26:02.043Z,45.70
2018-08-19T05:28:37.523Z,45.90
2018-08-19T05:31:06.367Z,45.80
2018-08-19T05:33:35.233Z,45.70
2018-08-19T05:36:04.108Z,45.80
2018-08-19T05:38:33.555Z,45.80
2018-08-19T05:41:02.761Z,45.50
2018-08-19T05:43:31.691Z,45.60
2018-08-19T05:46:01.565Z,45.70
2018-08-19T05:48:31.006Z,44.80
2018-08-19T05:51:00.265Z,44.90
2018-08-19T05:53:29.072Z,44.40
2018-08-19T05:55:57.880Z,44.10
2018-08-19T05:58:26.736Z,44.10
2018-08-19T06:00:59.338Z,44.00
2018-08-19T06:03:28.290Z,43.60
2018-08-19T06:05:57.505Z,44.10
2018-08-19T06:08:26.293Z,43.50
2018-08-19T06:10:55.590Z,42.80
2018-08-19T06:13:24.406Z,42.80
2018-08-19T06:15:53.304Z,42.50
2018-08-19T06:18:22.045Z,42.30
2018-08-19T06:20:50.855Z,41.90
2018-08-19T06:23:21.761Z,41.60
2018-08-19T06:25:51.146Z,41.50
2018-08-19T06:28:19.959Z,41.70
2018-08-19T06:30:49.684Z,41.50
2018-08-19T06:33:18.885Z,41.30
2018-08-19T06:35:48.610Z,41.00
2018-08-19T06:38:17.413Z,40.80
2018-08-19T06:40:47.332Z,41.40
2018-08-19T06:43:16.271Z,40.80
2018-08-19T06:45:44.978Z,40.90
2018-08-19T06:48:13.797Z,41.00
2018-08-19T06:50:42.917Z,40.80
2018-08-19T06:53:17.180Z,41.00
2018-08-19T06:55:46.031Z,41.00
2018-08-19T06:58:14.845Z,40.90
2018-08-19T07:00:43.675Z,41.10
2018-08-19T07:03:12.507Z,40.70
2018-08-19T07:05:43.609Z,40.80
2018-08-19T07:08:12.455Z,40.80
2018-08-19T07:10:41.976Z,40.80
2018-08-19T07:13:13.724Z,40.60
2018-08-19T07:15:43.607Z,40.60
2018-08-19T07:18:14.282Z,40.50
2018-08-19T07:20:43.822Z,40.40
2018-08-19T07:23:13.039Z,40.10
2018-08-19T07:25:43.336Z,40.10
2018-08-19T07:28:13.769Z,40.00
2018-08-19T07:30:42.937Z,40.00
2018-08-19T07:33:13.069Z,39.90
2018-08-19T07:35:41.906Z,39.70
2018-08-19T07:38:10.937Z,39.60
2018-08-19T07:40:39.761Z,39.10
2018-08-19T07:43:08.659Z,38.80
2018-08-19T07:45:37.490Z,38.60
2018-08-19T07:48:06.556Z,38.40
2018-08-19T07:50:35.377Z,38.40
2018-08-19T07:53:04.422Z,38.40
2018-08-19T07:55:33.474Z,38.20
2018-08-19T07:58:02.307Z,38.20
2018-08-19T08:00:36.485Z,38.10
2018-08-19T08:03:05.287Z,38.10
2018-08-19T08:05:38.252Z,38.10
2018-08-19T08:08:08.678Z,37.90
2018-08-19T08:10:38.103Z,37.70
2018-08-19T08:13:10.878Z,37.50
2018-08-19T08:15:44.726Z,37.30
2018-08-19T08:18:14.097Z,36.90
2018-08-19T08:20:42.926Z,36.70
2018-08-19T08:23:21.793Z,36.70
2018-08-19T08:25:50.628Z,36.80
2018-08-19T08:28:19.696Z,36.50
2018-08-19T08:30:48.859Z,36.30
2018-08-19T08:33:17.809Z,36.40
2018-08-19T08:35:51.805Z,36.20
2018-08-19T08:38:20.606Z,36.20
2018-08-19T08:40:49.418Z,35.80
2018-08-19T08:43:18.242Z,35.60
2018-08-19T08:45:47.052Z,35.30
2018-08-19T08:48:15.886Z,35.30
2018-08-19T08:50:45.243Z,35.20
2018-08-19T08:53:14.464Z,35.30
2018-08-19T08:55:43.304Z,35.60
2018-08-19T08:58:12.119Z,35.00
2018-08-19T09:00:40.938Z,35.00
2018-08-19T09:03:10.011Z,35.10
2018-08-19T09:05:38.879Z,35.00
2018-08-19T09:08:07.786Z,34.70
2018-08-19T09:10:36.625Z,34.70
2018-08-19T09:13:05.765Z,34.60
2018-08-19T09:15:34.562Z,34.60
2018-08-19T09:18:03.375Z,34.10
2018-08-19T09:20:35.105Z,33.80
2018-08-19T09:23:04.001Z,33.60
2018-08-19T09:25:32.737Z,33.90
2018-08-19T09:28:01.610Z,33.80
2018-08-19T09:30:36.454Z,33.70
2018-08-19T09:33:05.750Z,33.70
2018-08-19T09:35:35.817Z,33.20
2018-08-19T09:38:17.437Z,33.20
2018-08-19T09:40:46.518Z,33.00
2018-08-19T09:43:15.362Z,33.50
2018-08-19T09:45:44.594Z,33.50
2018-08-19T09:48:13.884Z,33.40
2018-08-19T09:50:43.293Z,33.60
2018-08-19T09:53:12.711Z,33.50
2018-08-19T09:55:43.331Z,33.70
2018-08-19T09:58:17.674Z,33.70
2018-08-19T10:00:52.001Z,33.10
2018-08-19T10:03:20.806Z,33.00
2018-08-19T10:05:49.611Z,32.70
2018-08-19T10:08:21.615Z,32.60
2018-08-19T10:10:50.961Z,32.50
2018-08-19T10:13:19.797Z,32.30
2018-08-19T10:15:48.630Z,32.30
2018-08-19T10:18:17.471Z,32.60
2018-08-19T10:20:46.295Z,32.30
2018-08-19T10:23:15.103Z,32.00
2018-08-19T10:25:43.917Z,32.10
2018-08-19T10:28:12.803Z,31.80
2018-08-19T10:30:47.682Z,31.50
2018-08-19T10:33:16.803Z,31.60
2018-08-19T10:35:45.644Z,31.30
2018-08-19T10:38:16.364Z,31.40
2018-08-19T10:40:52.333Z,31.30
2018-08-19T10:43:21.533Z,31.00
2018-08-19T10:45:50.344Z,31.20
2018-08-19T10:48:19.191Z,30.80
2018-08-19T10:50:48.235Z,31.40
2018-08-19T10:53:22.374Z,30.70
2018-08-19T10:55:51.610Z,31.50
2018-08-19T10:58:20.466Z,30.80
2018-08-19T11:00:51.450Z,30.60
2018-08-19T11:03:21.014Z,30.70
2018-08-19T11:05:51.296Z,30.70
2018-08-19T11:08:20.093Z,30.70
2018-08-19T11:10:49.361Z,30.60
2018-08-19T11:13:19.604Z,30.50
2018-08-19T11:15:53.633Z,30.40
2018-08-19T11:18:30.481Z,30.40
2018-08-19T11:21:06.123Z,30.70
2018-08-19T11:23:39.498Z,30.40
2018-08-19T11:26:09.359Z,30.40
2018-08-19T11:28:41.623Z,30.40
2018-08-19T11:31:20.988Z,30.30
2018-08-19T11:33:50.072Z,30.60
2018-08-19T11:36:18.932Z,30.60
2018-08-19T11:38:49.438Z,30.30
2018-08-19T11:41:18.622Z,30.00
2018-08-19T11:43:48.487Z,29.90
2018-08-19T11:46:18.713Z,29.70
2018-08-19T11:48:54.944Z,29.90
2018-08-19T11:51:42.363Z,29.50
2018-08-19T11:54:12.875Z,30.00
2018-08-19T11:56:43.571Z,30.00
2018-08-19T11:59:12.380Z,29.80
2018-08-19T12:01:41.194Z,29.70
2018-08-19T12:04:12.316Z,29.80
2018-08-19T12:06:41.149Z,29.60
2018-08-19T12:09:10.783Z,29.30
2018-08-19T12:11:40.806Z,29.10
2018-08-19T12:14:14.693Z,29.30
2018-08-19T12:16:51.072Z,29.30
2018-08-19T12:19:24.882Z,28.80
2018-08-19T12:22:08.320Z,28.90
2018-08-19T12:24:45.711Z,28.90
2018-08-19T12:27:15.963Z,28.70
2018-08-19T12:29:45.460Z,28.80
2018-08-19T12:32:29.581Z,28.90
2018-08-19T12:34:59.594Z,28.90
2018-08-19T12:37:29.750Z,29.00
2018-08-19T12:39:59.494Z,29.10
2018-08-19T12:42:29.040Z,29.00
2018-08-19T12:45:13.488Z,28.80
2018-08-19T12:47:42.570Z,28.60
2018-08-19T12:50:14.499Z,28.90
2018-08-19T12:52:43.289Z,29.00
2018-08-19T12:55:15.797Z,28.90
2018-08-19T12:57:45.409Z,28.90
2018-08-19T13:00:17.686Z,28.90
2018-08-19T13:02:48.551Z,28.70
2018-08-19T13:05:18.233Z,28.70
2018-08-19T13:07:47.076Z,28.90
2018-08-19T13:10:16.332Z,28.70
2018-08-19T13:13:01.143Z,28.90
2018-08-19T13:15:31.025Z,28.70
2018-08-19T13:17:59.946Z,28.50
2018-08-19T13:20:28.785Z,28.70
2018-08-19T13:23:01.113Z,28.60
2018-08-19T13:25:30.249Z,28.60
2018-08-19T13:27:59.204Z,28.60
2018-08-19T13:30:28.038Z,28.60
2018-08-19T13:32:57.235Z,28.60
2018-08-19T13:35:26.055Z,28.90
2018-08-19T13:37:54.902Z,28.50
2018-08-19T13:40:23.710Z,28.30
2018-08-19T13:42:52.516Z,28.50
2018-08-19T13:45:22.246Z,28.50
2018-08-19T13:47:52.431Z,28.60
2018-08-19T13:50:21.243Z,28.50
2018-08-19T13:52:50.091Z,28.50
2018-08-19T13:55:20.332Z,28.40
2018-08-19T13:57:49.525Z,28.40
2018-08-19T14:00:21.390Z,28.30
2018-08-19T14:02:50.744Z,28.40
2018-08-19T14:05:19.558Z,28.30
2018-08-19T14:07:48.377Z,28.20
2018-08-19T14:10:17.576Z,28.20
2018-08-19T14:12:46.416Z,27.80
2018-08-19T14:15:15.765Z,28.20
2018-08-19T14:17:44.598Z,28.30
2018-08-19T14:20:13.416Z,29.00
2018-08-19T14:22:42.241Z,28.80
2018-08-19T14:25:12.030Z,28.50
2018-08-19T14:27:40.945Z,28.30
2018-08-19T14:30:11.359Z,28.30
2018-08-19T14:32:42.066Z,28.40
2018-08-19T14:35:10.966Z,28.30
2018-08-19T14:37:40.023Z,28.20
2018-08-19T14:40:14.862Z,28.40
2018-08-19T14:42:43.728Z,28.40
2018-08-19T14:45:12.640Z,28.50
2018-08-19T14:47:41.449Z,28.60
2018-08-19T14:50:13.334Z,28.80
2018-08-19T14:52:42.173Z,28.80
2018-08-19T14:55:11.076Z,28.30
2018-08-19T14:57:40.176Z,28.20
2018-08-19T15:00:13.465Z,28.30
2018-08-19T15:02:42.315Z,28.40
2018-08-19T15:05:15.058Z,28.30
2018-08-19T15:07:44.046Z,28.50
2018-08-19T15:10:17.487Z,28.50
2018-08-19T15:12:46.661Z,28.40
2018-08-19T15:15:15.475Z,28.70
2018-08-19T15:17:49.743Z,28.60
2018-08-19T15:20:26.635Z,28.80
2018-08-19T15:23:12.127Z,28.80
2018-08-19T15:25:40.969Z,28.80
2018-08-19T15:28:17.749Z,28.80
2018-08-19T15:30:46.575Z,28.80
2018-08-19T15:33:16.039Z,28.80
2018-08-19T15:35:44.930Z,28.80
2018-08-19T15:38:13.857Z,29.00
2018-08-19T15:40:46.104Z,28.90
2018-08-19T15:43:14.965Z,28.90
2018-08-19T15:45:44.542Z,28.90
2018-08-19T15:48:13.750Z,29.10
2018-08-19T15:50:42.560Z,28.80
2018-08-19T15:53:11.463Z,28.80
2018-08-19T15:55:40.534Z,28.80
2018-08-19T15:58:09.429Z,28.90
2018-08-19T16:00:40.570Z,29.00
2018-08-19T16:03:11.194Z,28.70
2018-08-19T16:05:40.051Z,28.70
2018-08-19T16:08:08.936Z,28.80
2018-08-19T16:10:38.156Z,29.30
2018-08-19T16:13:10.284Z,28.80
2018-08-19T16:15:39.202Z,29.00
2018-08-19T16:18:08.484Z,28.90
2018-08-19T16:20:37.601Z,28.70
2018-08-19T16:23:06.495Z,28.80
2018-08-19T16:25:35.398Z,28.80
2018-08-19T16:28:04.280Z,28.50
2018-08-19T16:30:33.609Z,28.80
2018-08-19T16:33:02.421Z,29.10
2018-08-19T16:35:31.264Z,29.00
2018-08-19T16:38:00.091Z,28.60
2018-08-19T16:40:28.956Z,28.60
2018-08-19T16:42:57.782Z,28.60
2018-08-19T16:45:26.648Z,28.60
2018-08-19T16:47:55.502Z,28.60
2018-08-19T16:50:24.434Z,28.80
2018-08-19T16:52:53.643Z,28.60
2018-08-19T16:55:25.464Z,28.80
2018-08-19T16:57:54.259Z,28.60
2018-08-19T17:00:23.120Z,28.90
2018-08-19T17:02:52.572Z,29.00
2018-08-19T17:05:30.564Z,28.80
2018-08-19T17:07:59.366Z,29.00
2018-08-19T17:10:29.834Z,29.00
2018-08-19T17:12:59.625Z,29.00
2018-08-19T17:15:28.875Z,29.10
2018-08-19T17:17:57.875Z,29.30
2018-08-19T17:20:27.646Z,29.60
2018-08-19T17:22:56.457Z,29.50
2018-08-19T17:25:25.279Z,29.40
2018-08-19T17:27:54.271Z,29.40
2018-08-19T17:30:23.098Z,29.60
2018-08-19T17:32:57.972Z,29.30
2018-08-19T17:35:26.797Z,29.50
2018-08-19T17:37:55.595Z,29.60
2018-08-19T17:40:24.555Z,29.80
2018-08-19T17:42:53.540Z,29.50
2018-08-19T17:45:22.377Z,29.40
2018-08-19T17:47:51.246Z,29.40
2018-08-19T17:50:24.621Z,29.40
2018-08-19T17:52:54.586Z,29.40
2018-08-19T17:55:23.810Z,29.50
2018-08-19T17:57:52.654Z,29.50
2018-08-19T18:00:21.930Z,29.60
2018-08-19T18:02:51.013Z,29.70
2018-08-19T18:05:20.269Z,29.80
2018-08-19T18:07:51.426Z,30.00
2018-08-19T18:10:20.361Z,30.10
2018-08-19T18:12:56.114Z,30.00
2018-08-19T18:15:25.007Z,30.70
2018-08-19T18:17:59.640Z,30.50
2018-08-19T18:20:36.007Z,30.50
2018-08-19T18:23:15.722Z,30.60
2018-08-19T18:25:48.940Z,30.70
2018-08-19T18:28:23.699Z,30.80
2018-08-19T18:30:58.518Z,31.50
2018-08-19T18:33:27.990Z,31.10
2018-08-19T18:35:56.814Z,31.00
2018-08-19T18:38:28.122Z,31.30
2018-08-19T18:40:56.899Z,31.10
2018-08-19T18:43:25.698Z,31.20
2018-08-19T18:45:54.525Z,31.60
2018-08-19T18:48:23.802Z,31.60
2018-08-19T18:50:55.146Z,32.00
2018-08-19T18:53:24.482Z,31.90
2018-08-19T18:55:53.269Z,32.30
2018-08-19T18:58:22.098Z,32.50
2018-08-19T19:00:56.290Z,32.60
2018-08-19T19:03:25.270Z,32.60
2018-08-19T19:05:54.643Z,33.00
2018-08-19T19:08:23.926Z,33.30
2018-08-19T19:10:58.599Z,33.50
2018-08-19T19:13:27.949Z,33.00
2018-08-19T19:15:56.788Z,33.00
2018-08-19T19:18:25.599Z,33.40
2018-08-19T19:20:58.609Z,33.10
2018-08-19T19:23:32.784Z,33.30
2018-08-19T19:26:03.281Z,33.50
2018-08-19T19:28:32.397Z,33.70
2018-08-19T19:31:06.590Z,33.40
2018-08-19T19:33:36.217Z,34.00
2018-08-19T19:36:09.275Z,34.20
2018-08-19T19:38:45.626Z,34.10
2018-08-19T19:41:14.953Z,34.50
2018-08-19T19:43:43.794Z,34.60
2018-08-19T19:46:12.609Z,34.40
2018-08-19T19:48:41.474Z,35.00
2018-08-19T19:51:10.315Z,35.10
2018-08-19T19:53:39.106Z,35.20
2018-08-19T19:56:16.608Z,35.40
2018-08-19T19:58:46.423Z,35.50
2018-08-19T20:01:15.650Z,35.80
2018-08-19T20:03:49.720Z,35.80
2018-08-19T20:06:19.061Z,35.90
2018-08-19T20:08:47.885Z,36.10
2018-08-19T20:11:22.307Z,35.90
2018-08-19T20:13:51.096Z,36.20
2018-08-19T20:16:20.157Z,36.20
2018-08-19T20:18:48.990Z,36.40
2018-08-19T20:21:25.731Z,36.50
2018-08-19T20:23:56.198Z,36.60
2018-08-19T20:26:25.819Z,36.80
2018-08-19T20:28:55.965Z,36.80
2018-08-19T20:31:25.027Z,37.00
2018-08-19T20:33:53.923Z,37.00
2018-08-19T20:36:22.795Z,37.30
2018-08-19T20:38:51.658Z,37.30
2018-08-19T20:41:20.529Z,37.50
2018-08-19T20:43:49.449Z,37.60
2018-08-19T20:46:18.263Z,37.70
2018-08-19T20:48:47.561Z,37.90
2018-08-19T20:51:16.366Z,37.90
2018-08-19T20:53:45.555Z,38.00
2018-08-19T20:56:14.394Z,38.10
2018-08-19T20:58:43.243Z,38.10
2018-08-19T21:01:17.586Z,38.20
2018-08-19T21:03:46.780Z,38.50
2018-08-19T21:06:15.624Z,38.50
2018-08-19T21:08:44.774Z,38.50
2018-08-19T21:11:13.622Z,38.70
2018-08-19T21:13:42.413Z,38.70
2018-08-19T21:16:11.648Z,39.00
2018-08-19T21:18:40.491Z,39.00
2018-08-19T21:21:09.395Z,39.10
2018-08-19T21:23:38.266Z,39.10
2018-08-19T21:26:07.271Z,39.20
2018-08-19T21:28:36.127Z,39.20
2018-08-19T21:31:04.962Z,39.50
2018-08-19T21:33:33.794Z,39.50
2018-08-19T21:36:02.707Z,39.60
2018-08-19T21:38:31.623Z,39.70
2018-08-19T21:41:00.446Z,39.80
2018-08-19T21:43:30.734Z,39.90
2018-08-19T21:46:00.075Z,40.00
2018-08-19T21:48:28.893Z,40.10
2018-08-19T21:50:57.721Z,40.20
2018-08-19T21:53:26.607Z,40.40
2018-08-19T21:55:55.437Z,41.20
2018-08-19T21:58:24.354Z,40.90
2018-08-19T22:00:59.878Z,41.10
2018-08-19T22:03:33.961Z,41.60
2018-08-19T22:06:05.855Z,41.80
2018-08-19T22:08:34.697Z,42.00
2018-08-19T22:11:04.184Z,42.20
2018-08-19T22:13:33.038Z,42.40
2018-08-19T22:16:01.857Z,42.50
2018-08-19T22:18:31.606Z,42.70
2018-08-19T22:21:14.939Z,43.30
2018-08-19T22:23:45.570Z,42.80
2018-08-19T22:26:15.485Z,43.10
2018-08-19T22:28:44.581Z,43.00
2018-08-19T22:31:25.246Z,43.10
2018-08-19T22:33:55.161Z,43.20
2018-08-19T22:36:24.024Z,43.30
2018-08-19T22:38:53.515Z,43.30
2018-08-19T22:41:24.594Z,43.30
2018-08-19T22:43:54.410Z,43.50
2018-08-19T22:46:23.370Z,43.50
2018-08-19T22:48:52.963Z,43.60
2018-08-19T22:51:21.830Z,43.50
2018-08-19T22:53:52.331Z,43.50
2018-08-19T22:56:21.729Z,43.80
2018-08-19T22:58:50.531Z,43.70
2018-08-19T23:01:19.398Z,43.90
2018-08-19T23:03:48.850Z,44.00
2018-08-19T23:06:17.633Z,44.00
2018-08-19T23:08:46.482Z,44.10
2018-08-19T23:11:22.429Z,44.20
2018-08-19T23:14:08.581Z,44.40
2018-08-19T23:16:37.413Z,44.50
2018-08-19T23:19:06.254Z,44.50
2018-08-19T23:21:35.088Z,44.80
2018-08-19T23:24:04.240Z,44.80
2018-08-19T23:26:33.064Z,45.00
2018-08-19T23:29:01.892Z,45.20
2018-08-19T23:31:30.713Z,45.10
2018-08-19T23:33:59.529Z,45.20
2018-08-19T23:36:28.348Z,45.30
2018-08-19T23:38:57.171Z,45.40
2018-08-19T23:41:25.970Z,45.50
2018-08-19T23:43:54.784Z,45.70
2018-08-19T23:46:24.007Z,45.60
2018-08-19T23:48:52.818Z,45.80
2018-08-19T23:51:25.735Z,45.80
2018-08-19T23:53:54.632Z,45.80
2018-08-19T23:56:23.472Z,46.30
2018-08-19T23:58:52.308Z,45.60
